Aeroporto :







RITROVATECI SU...

 
LOGIN :

Iscrizione | Disclaimer

   EN    FR    IT 

 









Sommario :    VFR   VFR Marginale   IFR   IFR Intensivo   IFR Molto Intensivo
Visibilità : 
Base nubi : 
>= 8 km
>= 3000ft
5 / 8 km
1000 / 3000 ft
1500m / 5 km
500 / 1000 ft
800 / 1500m
200 / 500 ft
< 800m
< 200 ft
Simboli :   Temporali  Nebbia  Neve Forte  Precipitazioni Forti  Vento > 20 kt







- Altitudine del aeroporto : 108 ft
- Codice IATA : YAY


CYAY - St Anthony

ULTIMO METAR :
  • 251300Z AUTO 23016G22KT 9SM OVC140 17/10 A3018 RMK SLP223

METARs OBSOLETI :
  • 251200Z AUTO 23015G21KT 9SM FEW150 15/12 A3018 RMK SLP223
  • 251100Z AUTO 23016KT 9SM CLR 14/11 A3018 RMK SLP223

TAF AMD TAF CYAY
Valido dal 25 a 10 ore il 25 a 20 ore UTC


251020Z 2510/2520 24015G25KT P6SM SKC
BECMG 2514/2516 26010G20KT RMK FCST BASED ON AUTO OBS. NXT FCST BY 251400Z
Nessun NOTAM noto per questo aeroporto.



MetMap, La meteo Aeronautica in un colpo d'occhio ! - Copyright ORBIFLY Dicembre 2007 - Disclaimer

ORBIFLY MET'MAP TEAM :

Programmazione e sviluppo : Alexandra Zaïnal
Concezione e sviluppo : Baudouin d'Aumeries
Co-Programmazione e sviluppo : Marc-Olivier Méhu
Supporto tecnico e logistico : Manuel Goepfert
Aiuto per la traduzione : Arnaldo La Scala

Contatto : metmap@orbifly.com




FONTI E CREDITI :

   NOAA